sensor_id;sensor_type;location;lat;lon;timestamp;pressure;altitude;pressure_sealevel;temperature;humidity
51299;BME280;37382;45.192;9.790;2023-03-03T05:05:59;101235.13;;;3.24;100.00
51299;BME280;37382;45.192;9.790;2023-03-03T05:08:27;101240.78;;;3.11;100.00
51299;BME280;37382;45.192;9.790;2023-03-03T05:10:54;101240.03;;;3.09;100.00
51299;BME280;37382;45.192;9.790;2023-03-03T05:13:22;101237.63;;;3.06;100.00
51299;BME280;37382;45.192;9.790;2023-03-03T05:15:51;101237.13;;;3.31;100.00
51299;BME280;37382;45.192;9.790;2023-03-03T05:18:18;101242.53;;;3.41;100.00
51299;BME280;37382;45.192;9.790;2023-03-03T05:20:47;101236.31;;;3.60;100.00
51299;BME280;37382;45.192;9.790;2023-03-03T05:23:14;101232.66;;;3.90;100.00
51299;BME280;37382;45.192;9.790;2023-03-03T05:25:43;101230.81;;;4.01;100.00
51299;BME280;37382;45.192;9.790;2023-03-03T05:28:10;101226.00;;;4.04;100.00
51299;BME280;37382;45.192;9.790;2023-03-03T05:30:38;101227.38;;;4.18;100.00
51299;BME280;37382;45.192;9.790;2023-03-03T05:33:06;101221.72;;;4.31;100.00
51299;BME280;37382;45.192;9.790;2023-03-03T05:35:33;101228.53;;;4.25;100.00
51299;BME280;37382;45.192;9.790;2023-03-03T05:38:01;101231.31;;;4.34;100.00
51299;BME280;37382;45.192;9.790;2023-03-03T05:40:32;101231.47;;;4.42;100.00
51299;BME280;37382;45.192;9.790;2023-03-03T05:42:59;101231.88;;;4.47;100.00
51299;BME280;37382;45.192;9.790;2023-03-03T05:45:27;101226.53;;;4.27;100.00
51299;BME280;37382;45.192;9.790;2023-03-03T05:47:55;101228.78;;;4.32;100.00
51299;BME280;37382;45.192;9.790;2023-03-03T05:50:23;101230.22;;;4.26;100.00
51299;BME280;37382;45.192;9.790;2023-03-03T05:52:51;101233.63;;;4.28;100.00
51299;BME280;37382;45.192;9.790;2023-03-03T05:55:19;101231.09;;;4.17;100.00
51299;BME280;37382;45.192;9.790;2023-03-03T05:57:46;101237.63;;;3.66;100.00
51299;BME280;37382;45.192;9.790;2023-03-03T06:00:14;101233.09;;;3.56;100.00
51299;BME280;37382;45.192;9.790;2023-03-03T06:02:43;101240.56;;;3.53;100.00
51299;BME280;37382;45.192;9.790;2023-03-03T06:05:11;101241.47;;;3.23;100.00
51299;BME280;37382;45.192;9.790;2023-03-03T06:07:39;101243.53;;;2.99;100.00
51299;BME280;37382;45.192;9.790;2023-03-03T06:10:07;101243.53;;;2.90;100.00
51299;BME280;37382;45.192;9.790;2023-03-03T06:12:37;101253.53;;;2.88;100.00
51299;BME280;37382;45.192;9.790;2023-03-03T06:15:06;101262.00;;;2.83;100.00
51299;BME280;37382;45.192;9.790;2023-03-03T06:17:33;101258.16;;;2.76;100.00
51299;BME280;37382;45.192;9.790;2023-03-03T06:20:01;101260.84;;;2.76;100.00
51299;BME280;37382;45.192;9.790;2023-03-03T06:22:29;101257.03;;;2.78;100.00
51299;BME280;37382;45.192;9.790;2023-03-03T06:24:56;101259.50;;;2.91;100.00
51299;BME280;37382;45.192;9.790;2023-03-03T06:27:24;101254.03;;;3.02;100.00
51299;BME280;37382;45.192;9.790;2023-03-03T06:29:51;101259.66;;;2.99;100.00
51299;BME280;37382;45.192;9.790;2023-03-03T06:32:19;101256.03;;;3.10;100.00
51299;BME280;37382;45.192;9.790;2023-03-03T06:34:47;101264.28;;;3.28;100.00
51299;BME280;37382;45.192;9.790;2023-03-03T06:37:14;101260.38;;;3.42;100.00
51299;BME280;37382;45.192;9.790;2023-03-03T06:39:41;101257.94;;;3.39;100.00
51299;BME280;37382;45.192;9.790;2023-03-03T06:42:09;101265.47;;;3.45;100.00
51299;BME280;37382;45.192;9.790;2023-03-03T06:44:36;101267.19;;;3.46;100.00
51299;BME280;37382;45.192;9.790;2023-03-03T06:47:04;101270.97;;;3.34;100.00
51299;BME280;37382;45.192;9.790;2023-03-03T06:49:32;101279.13;;;3.23;100.00
51299;BME280;37382;45.192;9.790;2023-03-03T06:52:01;101281.44;;;3.37;100.00
51299;BME280;37382;45.192;9.790;2023-03-03T06:54:32;101278.91;;;3.35;100.00
51299;BME280;37382;45.192;9.790;2023-03-03T06:57:14;101283.38;;;3.25;100.00
51299;BME280;37382;45.192;9.790;2023-03-03T06:59:44;101282.19;;;3.49;100.00
51299;BME280;37382;45.192;9.790;2023-03-03T07:02:15;101286.06;;;3.76;100.00
51299;BME280;37382;45.192;9.790;2023-03-03T07:04:44;101284.50;;;3.83;100.00
51299;BME280;37382;45.192;9.790;2023-03-03T07:07:21;101284.22;;;3.96;100.00
51299;BME280;37382;45.192;9.790;2023-03-03T07:09:50;101288.75;;;4.05;100.00
51299;BME280;37382;45.192;9.790;2023-03-03T07:12:20;101283.78;;;4.20;100.00
51299;BME280;37382;45.192;9.790;2023-03-03T07:14:54;101288.59;;;4.45;100.00
51299;BME280;37382;45.192;9.790;2023-03-03T07:17:24;101289.53;;;4.64;100.00
51299;BME280;37382;45.192;9.790;2023-03-03T07:19:52;101283.50;;;4.99;100.00
51299;BME280;37382;45.192;9.790;2023-03-03T07:22:23;101289.59;;;5.29;100.00
51299;BME280;37382;45.192;9.790;2023-03-03T07:24:53;101288.63;;;5.21;100.00
51299;BME280;37382;45.192;9.790;2023-03-03T07:27:28;101289.50;;;5.49;100.00
51299;BME280;37382;45.192;9.790;2023-03-03T07:30:17;101299.56;;;5.75;100.00
51299;BME280;37382;45.192;9.790;2023-03-03T07:32:47;101287.78;;;5.48;100.00
51299;BME280;37382;45.192;9.790;2023-03-03T07:37:58;101297.56;;;5.77;100.00
51299;BME280;37382;45.192;9.790;2023-03-03T07:40:38;101299.19;;;5.87;100.00
51299;BME280;37382;45.192;9.790;2023-03-03T07:43:39;101311.38;;;5.92;100.00
51299;BME280;37382;45.192;9.790;2023-03-03T07:48:38;101303.00;;;6.13;100.00
51299;BME280;37382;45.192;9.790;2023-03-03T07:51:37;101299.31;;;6.14;100.00
51299;BME280;37382;45.192;9.790;2023-03-03T07:54:38;101303.38;;;6.36;100.00
51299;BME280;37382;45.192;9.790;2023-03-03T07:57:27;101305.31;;;6.70;100.00
51299;BME280;37382;45.192;9.790;2023-03-03T08:01:24;101309.56;;;6.72;100.00
51299;BME280;37382;45.192;9.790;2023-03-03T08:03:03;101309.75;;;6.53;100.00
51299;BME280;37382;45.192;9.790;2023-03-03T08:15:49;101318.44;;;6.83;100.00
51299;BME280;37382;45.192;9.790;2023-03-03T08:18:23;101312.84;;;6.58;100.00
51299;BME280;37382;45.192;9.790;2023-03-03T08:21:00;101317.19;;;7.03;100.00
51299;BME280;37382;45.192;9.790;2023-03-03T08:23:29;101314.09;;;7.24;100.00
51299;BME280;37382;45.192;9.790;2023-03-03T08:25:56;101309.53;;;7.25;100.00
51299;BME280;37382;45.192;9.790;2023-03-03T08:28:24;101312.97;;;7.01;100.00
51299;BME280;37382;45.192;9.790;2023-03-03T08:30:51;101325.25;;;6.95;100.00
51299;BME280;37382;45.192;9.790;2023-03-03T08:33:35;101324.44;;;6.94;100.00
51299;BME280;37382;45.192;9.790;2023-03-03T08:36:04;101316.28;;;7.21;100.00
51299;BME280;37382;45.192;9.790;2023-03-03T08:38:32;101311.53;;;7.23;100.00
51299;BME280;37382;45.192;9.790;2023-03-03T08:41:00;101319.47;;;7.59;100.00
51299;BME280;37382;45.192;9.790;2023-03-03T08:43:27;101318.00;;;7.30;100.00
51299;BME280;37382;45.192;9.790;2023-03-03T08:45:58;101318.25;;;7.45;100.00
51299;BME280;37382;45.192;9.790;2023-03-03T08:48:28;101308.91;;;8.07;100.00
51299;BME280;37382;45.192;9.790;2023-03-03T08:50:56;101306.75;;;8.35;100.00
51299;BME280;37382;45.192;9.790;2023-03-03T08:53:23;101313.53;;;8.39;100.00
51299;BME280;37382;45.192;9.790;2023-03-03T08:55:51;101309.78;;;8.15;100.00
51299;BME280;37382;45.192;9.790;2023-03-03T08:58:20;101313.00;;;8.02;100.00
51299;BME280;37382;45.192;9.790;2023-03-03T09:01:00;101316.41;;;8.21;100.00
51299;BME280;37382;45.192;9.790;2023-03-03T09:03:27;101325.69;;;8.02;100.00
51299;BME280;37382;45.192;9.790;2023-03-03T09:05:56;101323.97;;;7.93;100.00
51299;BME280;37382;45.192;9.790;2023-03-03T09:08:23;101325.34;;;7.97;100.00
51299;BME280;37382;45.192;9.790;2023-03-03T09:10:51;101327.41;;;8.19;100.00
51299;BME280;37382;45.192;9.790;2023-03-03T09:13:19;101315.22;;;8.07;100.00
51299;BME280;37382;45.192;9.790;2023-03-03T09:15:47;101327.13;;;8.47;100.00
51299;BME280;37382;45.192;9.790;2023-03-03T09:18:29;101325.38;;;8.22;100.00
51299;BME280;37382;45.192;9.790;2023-03-03T09:20:57;101322.50;;;8.15;100.00
51299;BME280;37382;45.192;9.790;2023-03-03T09:23:39;101319.31;;;8.52;100.00
51299;BME280;37382;45.192;9.790;2023-03-03T09:26:30;101320.66;;;8.32;100.00
51299;BME280;37382;45.192;9.790;2023-03-03T09:31:53;101329.97;;;8.37;100.00
51299;BME280;37382;45.192;9.790;2023-03-03T09:34:25;101332.19;;;8.50;100.00
51299;BME280;37382;45.192;9.790;2023-03-03T09:36:55;101326.09;;;8.73;100.00
51299;BME280;37382;45.192;9.790;2023-03-03T09:39:24;101321.34;;;8.59;100.00
51299;BME280;37382;45.192;9.790;2023-03-03T09:42:15;101323.88;;;8.85;100.00
51299;BME280;37382;45.192;9.790;2023-03-03T09:58:55;101319.59;;;9.55;100.00
51299;BME280;37382;45.192;9.790;2023-03-03T10:01:50;101321.13;;;9.49;100.00
51299;BME280;37382;45.192;9.790;2023-03-03T10:18:57;101309.72;;;10.63;100.00
51299;BME280;37382;45.192;9.790;2023-03-03T10:32:45;101315.91;;;10.57;100.00
51299;BME280;37382;45.192;9.790;2023-03-03T10:38:06;101317.75;;;11.09;100.00
51299;BME280;37382;45.192;9.790;2023-03-03T10:52:32;101307.34;;;11.94;100.00
51299;BME280;37382;45.192;9.790;2023-03-03T11:00:22;101308.50;;;11.70;100.00
51299;BME280;37382;45.192;9.790;2023-03-03T11:06:09;101308.41;;;11.63;100.00
51299;BME280;37382;45.192;9.790;2023-03-03T11:17:03;101310.81;;;12.24;100.00
51299;BME280;37382;45.192;9.790;2023-03-03T11:19:51;101310.41;;;11.91;100.00
51299;BME280;37382;45.192;9.790;2023-03-03T11:25:26;101303.94;;;12.57;100.00
51299;BME280;37382;45.192;9.790;2023-03-03T11:28:01;101291.25;;;12.99;100.00
51299;BME280;37382;45.192;9.790;2023-03-03T11:33:36;101293.78;;;12.44;100.00
51299;BME280;37382;45.192;9.790;2023-03-03T11:39:02;101278.50;;;13.55;100.00
51299;BME280;37382;45.192;9.790;2023-03-03T11:41:38;101281.53;;;12.90;100.00
51299;BME280;37382;45.192;9.790;2023-03-03T11:44:21;101280.72;;;13.31;100.00
51299;BME280;37382;45.192;9.790;2023-03-03T11:47:00;101274.97;;;12.56;100.00
51299;BME280;37382;45.192;9.790;2023-03-03T11:55:18;101258.66;;;13.32;100.00
51299;BME280;37382;45.192;9.790;2023-03-03T12:00:50;101250.66;;;13.31;100.00
51299;BME280;37382;45.192;9.790;2023-03-03T12:03:48;101246.84;;;13.25;100.00
51299;BME280;37382;45.192;9.790;2023-03-03T12:06:29;101242.72;;;13.36;100.00
51299;BME280;37382;45.192;9.790;2023-03-03T12:12:14;101240.34;;;14.08;100.00
51299;BME280;37382;45.192;9.790;2023-03-03T12:28:49;101215.53;;;14.36;100.00
51299;BME280;37382;45.192;9.790;2023-03-03T12:31:29;101215.75;;;14.48;100.00
51299;BME280;37382;45.192;9.790;2023-03-03T12:34:17;101213.88;;;14.29;100.00
51299;BME280;37382;45.192;9.790;2023-03-03T12:39:55;101207.13;;;14.31;100.00
51299;BME280;37382;45.192;9.790;2023-03-03T12:48:11;101208.75;;;13.85;100.00
51299;BME280;37382;45.192;9.790;2023-03-03T12:58:37;101201.34;;;14.93;100.00
51299;BME280;37382;45.192;9.790;2023-03-03T13:12:43;101191.03;;;15.40;92.47
51299;BME280;37382;45.192;9.790;2023-03-03T13:15:22;101192.25;;;15.90;87.30
51299;BME280;37382;45.192;9.790;2023-03-03T13:20:45;101194.66;;;15.79;84.65
51299;BME280;37382;45.192;9.790;2023-03-03T13:25:57;101195.00;;;15.06;90.02
51299;BME280;37382;45.192;9.790;2023-03-03T13:32:18;101192.88;;;15.08;84.91
51299;BME280;37382;45.192;9.790;2023-03-03T13:37:56;101185.63;;;15.65;85.27
51299;BME280;37382;45.192;9.790;2023-03-03T13:40:27;101186.28;;;15.99;83.30
51299;BME280;37382;45.192;9.790;2023-03-03T13:43:04;101183.84;;;15.85;83.75
51299;BME280;37382;45.192;9.790;2023-03-03T13:49:09;101180.34;;;16.28;81.56
51299;BME280;37382;45.192;9.790;2023-03-03T13:52:01;101170.34;;;16.96;78.71
51299;BME280;37382;45.192;9.790;2023-03-03T13:57:28;101166.28;;;17.17;74.72
51299;BME280;37382;45.192;9.790;2023-03-03T14:03:05;101100.69;;;23.48;51.96
51299;BME280;37382;45.192;9.790;2023-03-03T14:05:40;101063.53;;;25.65;46.42
51299;BME280;37382;45.192;9.790;2023-03-03T14:12:09;101081.66;;;28.36;37.86
51299;BME280;37382;45.192;9.790;2023-03-03T14:14:39;101124.59;;;28.73;36.42
51299;BME280;37382;45.192;9.790;2023-03-03T14:17:23;101136.53;;;28.18;36.02
51299;BME280;37382;45.192;9.790;2023-03-03T14:20:11;101128.88;;;29.71;34.18
51299;BME280;37382;45.192;9.790;2023-03-03T14:22:44;101103.50;;;31.37;31.18
51299;BME280;37382;45.192;9.790;2023-03-03T14:25:13;101018.78;;;31.47;30.72
51299;BME280;37382;45.192;9.790;2023-03-03T14:35:36;100983.16;;;30.29;30.87
51299;BME280;37382;45.192;9.790;2023-03-03T14:40:35;100997.16;;;32.04;28.28
51299;BME280;37382;45.192;9.790;2023-03-03T14:43:25;101016.34;;;31.54;28.61
51299;BME280;37382;45.192;9.790;2023-03-03T14:45:53;101045.47;;;32.06;27.66
51299;BME280;37382;45.192;9.790;2023-03-03T14:48:22;101048.50;;;32.39;27.95
51299;BME280;37382;45.192;9.790;2023-03-03T14:53:36;101067.19;;;34.62;25.23
51299;BME280;37382;45.192;9.790;2023-03-03T14:56:37;101077.41;;;33.72;25.49
51299;BME280;37382;45.192;9.790;2023-03-03T14:59:19;101084.56;;;33.06;25.44
51299;BME280;37382;45.192;9.790;2023-03-03T15:01:46;101110.13;;;31.59;26.77
51299;BME280;37382;45.192;9.790;2023-03-03T15:06:43;101126.56;;;32.30;26.80
51299;BME280;37382;45.192;9.790;2023-03-03T15:09:34;101118.78;;;33.25;25.83
51299;BME280;37382;45.192;9.790;2023-03-03T15:15:26;101124.31;;;31.10;28.14
51299;BME280;37382;45.192;9.790;2023-03-03T15:17:57;101123.66;;;30.32;28.31
51299;BME280;37382;45.192;9.790;2023-03-03T15:23:53;101124.75;;;29.18;29.33
51299;BME280;37382;45.192;9.790;2023-03-03T15:34:42;101115.34;;;28.45;30.54
51299;BME280;37382;45.192;9.790;2023-03-03T15:37:37;101124.03;;;24.24;36.23
51299;BME280;37382;45.192;9.790;2023-03-03T15:56:41;101124.72;;;26.15;34.38
51299;BME280;37382;45.192;9.790;2023-03-03T16:02:18;101127.66;;;26.00;35.73
51299;BME280;37382;45.192;9.790;2023-03-03T16:05:00;101125.66;;;25.21;37.04
51299;BME280;37382;45.192;9.790;2023-03-03T16:07:45;101132.63;;;25.18;36.46
51299;BME280;37382;45.192;9.790;2023-03-03T16:10:56;101130.88;;;25.38;36.98
51299;BME280;37382;45.192;9.790;2023-03-03T16:13:44;101123.94;;;26.09;36.05
51299;BME280;37382;45.192;9.790;2023-03-03T16:19:54;101131.78;;;24.42;38.57
51299;BME280;37382;45.192;9.790;2023-03-03T16:22:27;101125.72;;;24.04;39.91
51299;BME280;37382;45.192;9.790;2023-03-03T16:28:03;101143.47;;;20.72;45.85
51299;BME280;37382;45.192;9.790;2023-03-03T16:33:22;101154.25;;;18.97;49.68
51299;BME280;37382;45.192;9.790;2023-03-03T16:36:04;101157.66;;;18.28;52.02
51299;BME280;37382;45.192;9.790;2023-03-03T16:38:39;101158.09;;;18.01;53.49
51299;BME280;37382;45.192;9.790;2023-03-03T16:44:38;101164.47;;;16.74;59.76
51299;BME280;37382;45.192;9.790;2023-03-03T16:47:33;101175.78;;;16.15;65.87
51299;BME280;37382;45.192;9.790;2023-03-03T16:53:25;101181.28;;;15.51;75.12
51299;BME280;37382;45.192;9.790;2023-03-03T17:15:14;101210.06;;;14.03;100.00
51299;BME280;37382;45.192;9.790;2023-03-03T17:17:53;101215.31;;;13.91;100.00
51299;BME280;37382;45.192;9.790;2023-03-03T17:20:49;101221.19;;;13.81;100.00
51299;BME280;37382;45.192;9.790;2023-03-03T17:40:35;101245.22;;;12.96;100.00
51299;BME280;37382;45.192;9.790;2023-03-03T17:43:17;101245.75;;;12.85;100.00
51299;BME280;37382;45.192;9.790;2023-03-03T17:45:50;101242.44;;;12.89;100.00
51299;BME280;37382;45.192;9.790;2023-03-03T18:08:15;101271.25;;;12.14;100.00
51299;BME280;37382;45.192;9.790;2023-03-03T18:17:04;101280.41;;;11.69;100.00
51299;BME280;37382;45.192;9.790;2023-03-03T18:22:32;101287.44;;;11.79;100.00
51299;BME280;37382;45.192;9.790;2023-03-03T18:25:09;101288.50;;;11.84;100.00
51299;BME280;37382;45.192;9.790;2023-03-03T18:27:40;101296.38;;;11.72;100.00
51299;BME280;37382;45.192;9.790;2023-03-03T18:33:01;101284.00;;;11.55;100.00
51299;BME280;37382;45.192;9.790;2023-03-03T18:35:32;101292.09;;;11.48;100.00
51299;BME280;37382;45.192;9.790;2023-03-03T18:38:26;101295.72;;;11.55;100.00
51299;BME280;37382;45.192;9.790;2023-03-03T18:41:04;101291.91;;;11.50;100.00
51299;BME280;37382;45.192;9.790;2023-03-03T18:54:22;101304.31;;;11.37;100.00
51299;BME280;37382;45.192;9.790;2023-03-03T19:02:24;101314.66;;;11.12;100.00
51299;BME280;37382;45.192;9.790;2023-03-03T19:05:13;101316.78;;;11.02;100.00
51299;BME280;37382;45.192;9.790;2023-03-03T19:07:50;101315.97;;;11.01;100.00
51299;BME280;37382;45.192;9.790;2023-03-03T19:12:54;101317.81;;;10.86;100.00
51299;BME280;37382;45.192;9.790;2023-03-03T19:17:57;101319.22;;;9.89;100.00
51299;BME280;37382;45.192;9.790;2023-03-03T19:20:26;101321.38;;;9.71;100.00
51299;BME280;37382;45.192;9.790;2023-03-03T19:23:11;101335.66;;;9.65;100.00
51299;BME280;37382;45.192;9.790;2023-03-03T19:25:40;101335.25;;;9.44;100.00
51299;BME280;37382;45.192;9.790;2023-03-03T19:28:27;101339.63;;;9.54;100.00
51299;BME280;37382;45.192;9.790;2023-03-03T19:31:05;101331.69;;;9.75;100.00
51299;BME280;37382;45.192;9.790;2023-03-03T19:33:58;101342.06;;;10.03;100.00
51299;BME280;37382;45.192;9.790;2023-03-03T19:36:57;101339.84;;;10.07;100.00
51299;BME280;37382;45.192;9.790;2023-03-03T19:39:45;101336.66;;;10.26;100.00
51299;BME280;37382;45.192;9.790;2023-03-03T19:47:41;101347.03;;;10.23;100.00
51299;BME280;37382;45.192;9.790;2023-03-03T19:50:17;101347.84;;;10.08;100.00
51299;BME280;37382;45.192;9.790;2023-03-03T19:53:04;101360.88;;;9.50;100.00
51299;BME280;37382;45.192;9.790;2023-03-03T19:59:15;101367.84;;;9.44;100.00
51299;BME280;37382;45.192;9.790;2023-03-03T20:04:49;101371.25;;;9.30;100.00
51299;BME280;37382;45.192;9.790;2023-03-03T20:07:28;101378.81;;;9.59;100.00
51299;BME280;37382;45.192;9.790;2023-03-03T20:15:36;101374.63;;;9.88;100.00
51299;BME280;37382;45.192;9.790;2023-03-03T20:23:44;101383.56;;;9.97;100.00
51299;BME280;37382;45.192;9.790;2023-03-03T20:26:30;101391.81;;;9.24;100.00
51299;BME280;37382;45.192;9.790;2023-03-03T20:29:11;101397.47;;;8.82;100.00
51299;BME280;37382;45.192;9.790;2023-03-03T20:31:53;101404.75;;;8.48;100.00
51299;BME280;37382;45.192;9.790;2023-03-03T20:37:13;101393.91;;;8.48;100.00
51299;BME280;37382;45.192;9.790;2023-03-03T20:42:44;101408.41;;;8.31;100.00
51299;BME280;37382;45.192;9.790;2023-03-03T20:45:32;101410.56;;;8.19;100.00
51299;BME280;37382;45.192;9.790;2023-03-03T20:48:28;101415.16;;;8.18;100.00
51299;BME280;37382;45.192;9.790;2023-03-03T20:51:22;101415.50;;;8.24;100.00
51299;BME280;37382;45.192;9.790;2023-03-03T20:56:52;101432.25;;;8.11;100.00
51299;BME280;37382;45.192;9.790;2023-03-03T20:59:40;101426.66;;;8.20;100.00
51299;BME280;37382;45.192;9.790;2023-03-03T21:04:45;101443.41;;;7.73;100.00
51299;BME280;37382;45.192;9.790;2023-03-03T21:07:25;101434.44;;;8.15;100.00
51299;BME280;37382;45.192;9.790;2023-03-03T21:10:13;101432.38;;;8.68;100.00
51299;BME280;37382;45.192;9.790;2023-03-03T21:12:41;101432.69;;;8.57;100.00
51299;BME280;37382;45.192;9.790;2023-03-03T21:15:29;101432.56;;;8.83;100.00
51299;BME280;37382;45.192;9.790;2023-03-03T21:17:59;101429.50;;;9.03;100.00
51299;BME280;37382;45.192;9.790;2023-03-03T21:20:30;101431.19;;;9.04;100.00
51299;BME280;37382;45.192;9.790;2023-03-03T21:23:00;101430.72;;;8.76;100.00
51299;BME280;37382;45.192;9.790;2023-03-03T21:25:55;101436.75;;;8.45;100.00
51299;BME280;37382;45.192;9.790;2023-03-03T21:28:25;101443.53;;;8.49;100.00
51299;BME280;37382;45.192;9.790;2023-03-03T21:31:14;101438.94;;;8.41;100.00
51299;BME280;37382;45.192;9.790;2023-03-03T21:33:56;101441.03;;;8.64;100.00
51299;BME280;37382;45.192;9.790;2023-03-03T21:36:45;101442.91;;;8.96;100.00
51299;BME280;37382;45.192;9.790;2023-03-03T21:39:20;101447.50;;;8.96;100.00
51299;BME280;37382;45.192;9.790;2023-03-03T21:41:55;101446.47;;;8.80;100.00
51299;BME280;37382;45.192;9.790;2023-03-03T21:47:03;101448.41;;;8.37;100.00
51299;BME280;37382;45.192;9.790;2023-03-03T21:49:32;101448.25;;;7.96;100.00
51299;BME280;37382;45.192;9.790;2023-03-03T21:52:00;101460.31;;;8.01;100.00
51299;BME280;37382;45.192;9.790;2023-03-03T21:54:28;101465.00;;;7.91;100.00
51299;BME280;37382;45.192;9.790;2023-03-03T21:56:55;101460.41;;;7.83;100.00
51299;BME280;37382;45.192;9.790;2023-03-03T21:59:22;101453.53;;;7.97;100.00
51299;BME280;37382;45.192;9.790;2023-03-03T22:01:50;101453.59;;;7.79;100.00
51299;BME280;37382;45.192;9.790;2023-03-03T22:04:18;101454.56;;;7.70;100.00
51299;BME280;37382;45.192;9.790;2023-03-03T22:06:45;101452.41;;;7.74;100.00
51299;BME280;37382;45.192;9.790;2023-03-03T22:09:13;101450.97;;;7.96;100.00
51299;BME280;37382;45.192;9.790;2023-03-03T22:11:40;101453.84;;;7.94;100.00
